sensor_id;sensor_type;location;lat;lon;timestamp;temperature;humidity
55369;DHT22;41247;49.736;8.752;2023-05-24T00:02:00;9.10;99.90
55369;DHT22;41247;49.736;8.752;2023-05-24T00:05:41;9.00;99.90
55369;DHT22;41247;49.736;8.752;2023-05-24T00:09:21;9.00;99.90
55369;DHT22;41247;49.736;8.752;2023-05-24T00:13:02;8.90;99.90
55369;DHT22;41247;49.736;8.752;2023-05-24T00:16:42;8.90;99.90
55369;DHT22;41247;49.736;8.752;2023-05-24T00:20:23;8.80;99.90
55369;DHT22;41247;49.736;8.752;2023-05-24T00:24:04;8.80;99.90
55369;DHT22;41247;49.736;8.752;2023-05-24T00:27:45;8.70;99.90
55369;DHT22;41247;49.736;8.752;2023-05-24T00:31:26;8.70;99.90
55369;DHT22;41247;49.736;8.752;2023-05-24T00:35:07;8.60;99.90
55369;DHT22;41247;49.736;8.752;2023-05-24T00:38:47;8.60;99.90
55369;DHT22;41247;49.736;8.752;2023-05-24T00:42:28;8.60;99.90
55369;DHT22;41247;49.736;8.752;2023-05-24T00:46:17;8.50;99.90
55369;DHT22;41247;49.736;8.752;2023-05-24T00:49:59;8.50;99.90
55369;DHT22;41247;49.736;8.752;2023-05-24T00:53:41;8.40;99.90
55369;DHT22;41247;49.736;8.752;2023-05-24T00:57:24;8.40;99.90
55369;DHT22;41247;49.736;8.752;2023-05-24T01:01:05;8.30;99.90
55369;DHT22;41247;49.736;8.752;2023-05-24T01:04:45;8.30;99.90
55369;DHT22;41247;49.736;8.752;2023-05-24T01:08:40;8.30;99.90
55369;DHT22;41247;49.736;8.752;2023-05-24T01:12:45;8.20;99.90
55369;DHT22;41247;49.736;8.752;2023-05-24T01:17:16;8.20;99.90
55369;DHT22;41247;49.736;8.752;2023-05-24T01:28:46;8.00;99.90
55369;DHT22;41247;49.736;8.752;2023-05-24T01:32:27;8.00;99.90
55369;DHT22;41247;49.736;8.752;2023-05-24T01:36:08;8.00;99.90
55369;DHT22;41247;49.736;8.752;2023-05-24T01:39:49;7.90;99.90
55369;DHT22;41247;49.736;8.752;2023-05-24T01:43:34;7.90;99.90
55369;DHT22;41247;49.736;8.752;2023-05-24T01:47:33;7.80;99.90
55369;DHT22;41247;49.736;8.752;2023-05-24T01:51:35;7.80;99.90
55369;DHT22;41247;49.736;8.752;2023-05-24T01:55:19;7.70;99.90
55369;DHT22;41247;49.736;8.752;2023-05-24T01:59:01;7.70;99.90
55369;DHT22;41247;49.736;8.752;2023-05-24T02:02:42;7.60;99.90
55369;DHT22;41247;49.736;8.752;2023-05-24T02:06:23;7.60;99.90
55369;DHT22;41247;49.736;8.752;2023-05-24T02:10:04;7.50;99.90
55369;DHT22;41247;49.736;8.752;2023-05-24T02:13:45;7.50;99.90
55369;DHT22;41247;49.736;8.752;2023-05-24T02:17:26;7.40;99.90
55369;DHT22;41247;49.736;8.752;2023-05-24T02:21:06;7.50;99.90
55369;DHT22;41247;49.736;8.752;2023-05-24T02:24:47;7.40;99.90
55369;DHT22;41247;49.736;8.752;2023-05-24T02:28:28;7.40;99.90
55369;DHT22;41247;49.736;8.752;2023-05-24T02:32:08;7.40;99.90
55369;DHT22;41247;49.736;8.752;2023-05-24T02:35:49;7.40;99.90
55369;DHT22;41247;49.736;8.752;2023-05-24T02:39:29;7.40;99.90
55369;DHT22;41247;49.736;8.752;2023-05-24T02:43:10;7.40;99.90
55369;DHT22;41247;49.736;8.752;2023-05-24T02:46:50;7.40;99.90
55369;DHT22;41247;49.736;8.752;2023-05-24T02:50:32;7.40;99.90
55369;DHT22;41247;49.736;8.752;2023-05-24T02:54:13;7.40;99.90
55369;DHT22;41247;49.736;8.752;2023-05-24T02:57:54;7.40;99.90
55369;DHT22;41247;49.736;8.752;2023-05-24T03:01:35;7.50;99.90
55369;DHT22;41247;49.736;8.752;2023-05-24T03:05:16;7.40;99.90
55369;DHT22;41247;49.736;8.752;2023-05-24T03:08:57;7.50;99.90
55369;DHT22;41247;49.736;8.752;2023-05-24T03:12:37;7.50;99.90
55369;DHT22;41247;49.736;8.752;2023-05-24T03:16:18;7.50;99.90
55369;DHT22;41247;49.736;8.752;2023-05-24T03:19:58;7.50;99.90
55369;DHT22;41247;49.736;8.752;2023-05-24T03:23:39;7.50;99.90
55369;DHT22;41247;49.736;8.752;2023-05-24T03:27:20;7.50;99.90
55369;DHT22;41247;49.736;8.752;2023-05-24T03:31:00;7.50;99.90
55369;DHT22;41247;49.736;8.752;2023-05-24T03:34:41;7.50;99.90
55369;DHT22;41247;49.736;8.752;2023-05-24T03:38:21;7.50;99.90
55369;DHT22;41247;49.736;8.752;2023-05-24T03:42:02;7.50;99.90
55369;DHT22;41247;49.736;8.752;2023-05-24T03:45:44;7.50;99.90
55369;DHT22;41247;49.736;8.752;2023-05-24T03:49:24;7.50;99.90
55369;DHT22;41247;49.736;8.752;2023-05-24T03:53:05;7.50;99.90
55369;DHT22;41247;49.736;8.752;2023-05-24T03:56:46;7.50;99.90
55369;DHT22;41247;49.736;8.752;2023-05-24T04:00:26;7.40;99.90
55369;DHT22;41247;49.736;8.752;2023-05-24T04:04:07;7.40;99.90
55369;DHT22;41247;49.736;8.752;2023-05-24T04:07:47;7.50;99.90
55369;DHT22;41247;49.736;8.752;2023-05-24T04:11:28;7.50;99.90
55369;DHT22;41247;49.736;8.752;2023-05-24T04:15:09;7.50;99.90
55369;DHT22;41247;49.736;8.752;2023-05-24T04:18:50;7.50;99.90
55369;DHT22;41247;49.736;8.752;2023-05-24T04:22:30;7.40;99.90
55369;DHT22;41247;49.736;8.752;2023-05-24T04:26:12;7.50;99.90
55369;DHT22;41247;49.736;8.752;2023-05-24T04:29:53;7.50;99.90
55369;DHT22;41247;49.736;8.752;2023-05-24T04:33:34;7.60;99.90
55369;DHT22;41247;49.736;8.752;2023-05-24T04:37:15;7.60;99.90
55369;DHT22;41247;49.736;8.752;2023-05-24T04:40:56;7.70;99.90
55369;DHT22;41247;49.736;8.752;2023-05-24T04:44:39;7.70;99.90
55369;DHT22;41247;49.736;8.752;2023-05-24T04:48:20;7.70;99.90
55369;DHT22;41247;49.736;8.752;2023-05-24T04:52:01;7.70;99.90
55369;DHT22;41247;49.736;8.752;2023-05-24T04:55:42;7.60;99.90
55369;DHT22;41247;49.736;8.752;2023-05-24T04:59:23;7.60;99.90
55369;DHT22;41247;49.736;8.752;2023-05-24T05:03:04;7.60;99.90
55369;DHT22;41247;49.736;8.752;2023-05-24T05:06:46;7.50;99.90
55369;DHT22;41247;49.736;8.752;2023-05-24T05:10:26;7.50;99.90
55369;DHT22;41247;49.736;8.752;2023-05-24T05:14:07;7.50;99.90
55369;DHT22;41247;49.736;8.752;2023-05-24T05:17:48;7.50;99.90
55369;DHT22;41247;49.736;8.752;2023-05-24T05:21:30;7.40;99.90
55369;DHT22;41247;49.736;8.752;2023-05-24T05:25:19;7.40;99.90
55369;DHT22;41247;49.736;8.752;2023-05-24T05:29:00;7.40;99.90
55369;DHT22;41247;49.736;8.752;2023-05-24T05:32:40;7.40;99.90
55369;DHT22;41247;49.736;8.752;2023-05-24T05:36:21;7.40;99.90
55369;DHT22;41247;49.736;8.752;2023-05-24T05:40:04;7.50;99.90
55369;DHT22;41247;49.736;8.752;2023-05-24T05:43:45;7.50;99.90
55369;DHT22;41247;49.736;8.752;2023-05-24T05:47:25;7.60;99.90
55369;DHT22;41247;49.736;8.752;2023-05-24T05:51:07;7.60;99.90
55369;DHT22;41247;49.736;8.752;2023-05-24T05:54:47;7.70;99.90
55369;DHT22;41247;49.736;8.752;2023-05-24T05:58:28;7.70;99.90
55369;DHT22;41247;49.736;8.752;2023-05-24T06:02:09;7.80;99.90
55369;DHT22;41247;49.736;8.752;2023-05-24T06:05:49;7.80;99.90
55369;DHT22;41247;49.736;8.752;2023-05-24T06:09:30;7.90;99.90
55369;DHT22;41247;49.736;8.752;2023-05-24T06:13:10;7.90;99.90
55369;DHT22;41247;49.736;8.752;2023-05-24T06:16:52;8.00;99.90
55369;DHT22;41247;49.736;8.752;2023-05-24T06:20:32;8.10;99.90
55369;DHT22;41247;49.736;8.752;2023-05-24T06:24:14;8.30;99.90
55369;DHT22;41247;49.736;8.752;2023-05-24T06:27:55;8.40;99.90
55369;DHT22;41247;49.736;8.752;2023-05-24T06:31:36;8.50;99.90
55369;DHT22;41247;49.736;8.752;2023-05-24T06:35:18;8.70;99.90
55369;DHT22;41247;49.736;8.752;2023-05-24T06:38:58;8.90;99.90
55369;DHT22;41247;49.736;8.752;2023-05-24T06:42:39;9.20;99.90
55369;DHT22;41247;49.736;8.752;2023-05-24T06:46:19;9.30;99.90
55369;DHT22;41247;49.736;8.752;2023-05-24T06:50:02;9.60;99.90
55369;DHT22;41247;49.736;8.752;2023-05-24T06:53:43;9.90;99.90
55369;DHT22;41247;49.736;8.752;2023-05-24T06:57:23;10.10;99.90
55369;DHT22;41247;49.736;8.752;2023-05-24T07:01:04;10.30;99.90
55369;DHT22;41247;49.736;8.752;2023-05-24T07:04:44;10.40;99.90
55369;DHT22;41247;49.736;8.752;2023-05-24T07:08:25;10.40;99.90
55369;DHT22;41247;49.736;8.752;2023-05-24T07:12:06;10.10;99.90
55369;DHT22;41247;49.736;8.752;2023-05-24T07:15:47;10.30;99.90
55369;DHT22;41247;49.736;8.752;2023-05-24T07:19:28;10.80;99.90
55369;DHT22;41247;49.736;8.752;2023-05-24T07:23:08;11.20;99.90
55369;DHT22;41247;49.736;8.752;2023-05-24T07:26:50;11.40;99.90
55369;DHT22;41247;49.736;8.752;2023-05-24T07:30:43;11.40;99.90
55369;DHT22;41247;49.736;8.752;2023-05-24T07:34:23;11.60;99.90
55369;DHT22;41247;49.736;8.752;2023-05-24T07:38:04;11.50;99.90
55369;DHT22;41247;49.736;8.752;2023-05-24T07:41:45;11.20;99.90
55369;DHT22;41247;49.736;8.752;2023-05-24T07:45:25;11.20;99.90
55369;DHT22;41247;49.736;8.752;2023-05-24T07:49:06;11.30;99.90
55369;DHT22;41247;49.736;8.752;2023-05-24T07:52:46;11.60;99.90
55369;DHT22;41247;49.736;8.752;2023-05-24T07:56:27;11.80;99.90
55369;DHT22;41247;49.736;8.752;2023-05-24T08:00:08;11.90;99.90
55369;DHT22;41247;49.736;8.752;2023-05-24T08:03:49;12.10;99.90
55369;DHT22;41247;49.736;8.752;2023-05-24T08:07:29;11.80;99.90
55369;DHT22;41247;49.736;8.752;2023-05-24T08:11:10;11.60;99.90
55369;DHT22;41247;49.736;8.752;2023-05-24T08:14:51;11.60;99.90
55369;DHT22;41247;49.736;8.752;2023-05-24T08:18:31;11.80;99.90
55369;DHT22;41247;49.736;8.752;2023-05-24T08:22:12;11.70;99.90
55369;DHT22;41247;49.736;8.752;2023-05-24T08:25:58;11.80;99.90
55369;DHT22;41247;49.736;8.752;2023-05-24T08:29:38;12.10;99.90
55369;DHT22;41247;49.736;8.752;2023-05-24T08:33:19;12.20;99.90
55369;DHT22;41247;49.736;8.752;2023-05-24T08:37:04;12.40;99.90
55369;DHT22;41247;49.736;8.752;2023-05-24T08:40:46;12.70;99.90
55369;DHT22;41247;49.736;8.752;2023-05-24T08:44:27;13.00;99.90
55369;DHT22;41247;49.736;8.752;2023-05-24T08:48:10;13.00;99.90
55369;DHT22;41247;49.736;8.752;2023-05-24T08:51:52;13.10;99.90
55369;DHT22;41247;49.736;8.752;2023-05-24T08:55:32;13.40;99.90
55369;DHT22;41247;49.736;8.752;2023-05-24T08:59:14;13.90;99.90
55369;DHT22;41247;49.736;8.752;2023-05-24T09:02:56;14.30;99.90
55369;DHT22;41247;49.736;8.752;2023-05-24T09:06:38;14.30;99.90
55369;DHT22;41247;49.736;8.752;2023-05-24T09:10:19;14.20;99.90
55369;DHT22;41247;49.736;8.752;2023-05-24T09:14:01;13.90;99.90
55369;DHT22;41247;49.736;8.752;2023-05-24T09:17:42;13.80;99.90
55369;DHT22;41247;49.736;8.752;2023-05-24T09:21:23;13.90;99.90
55369;DHT22;41247;49.736;8.752;2023-05-24T09:25:05;13.90;99.90
55369;DHT22;41247;49.736;8.752;2023-05-24T09:28:46;13.70;99.90
55369;DHT22;41247;49.736;8.752;2023-05-24T09:32:27;13.40;99.90
55369;DHT22;41247;49.736;8.752;2023-05-24T09:36:08;13.20;99.90
55369;DHT22;41247;49.736;8.752;2023-05-24T09:39:49;13.30;99.90
55369;DHT22;41247;49.736;8.752;2023-05-24T09:43:58;13.80;99.90
55369;DHT22;41247;49.736;8.752;2023-05-24T09:47:40;14.20;99.90
55369;DHT22;41247;49.736;8.752;2023-05-24T09:51:21;14.40;99.90
55369;DHT22;41247;49.736;8.752;2023-05-24T09:55:16;14.30;99.90
55369;DHT22;41247;49.736;8.752;2023-05-24T09:58:57;14.80;99.90
55369;DHT22;41247;49.736;8.752;2023-05-24T10:02:38;15.10;99.90
55369;DHT22;41247;49.736;8.752;2023-05-24T10:06:19;14.70;99.90
55369;DHT22;41247;49.736;8.752;2023-05-24T10:10:01;14.30;99.90
55369;DHT22;41247;49.736;8.752;2023-05-24T10:13:43;14.50;99.90
55369;DHT22;41247;49.736;8.752;2023-05-24T10:17:24;15.00;99.90
55369;DHT22;41247;49.736;8.752;2023-05-24T10:21:06;15.30;99.90
55369;DHT22;41247;49.736;8.752;2023-05-24T10:24:49;15.50;99.90
55369;DHT22;41247;49.736;8.752;2023-05-24T10:28:51;15.70;99.90
55369;DHT22;41247;49.736;8.752;2023-05-24T10:32:37;15.90;99.90
55369;DHT22;41247;49.736;8.752;2023-05-24T10:36:18;16.00;99.90
55369;DHT22;41247;49.736;8.752;2023-05-24T10:40:04;16.10;99.90
55369;DHT22;41247;49.736;8.752;2023-05-24T10:43:46;16.30;99.90
55369;DHT22;41247;49.736;8.752;2023-05-24T10:47:26;16.40;99.90
55369;DHT22;41247;49.736;8.752;2023-05-24T10:51:33;16.40;99.90
55369;DHT22;41247;49.736;8.752;2023-05-24T10:55:19;16.50;99.90
55369;DHT22;41247;49.736;8.752;2023-05-24T10:59:00;16.70;99.90
55369;DHT22;41247;49.736;8.752;2023-05-24T11:02:41;16.90;99.90
55369;DHT22;41247;49.736;8.752;2023-05-24T11:10:30;17.00;99.90
55369;DHT22;41247;49.736;8.752;2023-05-24T11:14:11;17.50;99.90
55369;DHT22;41247;49.736;8.752;2023-05-24T11:18:12;17.70;99.90
55369;DHT22;41247;49.736;8.752;2023-05-24T11:21:56;17.50;99.90
55369;DHT22;41247;49.736;8.752;2023-05-24T11:25:37;17.40;99.90
55369;DHT22;41247;49.736;8.752;2023-05-24T11:29:18;17.60;99.90
55369;DHT22;41247;49.736;8.752;2023-05-24T11:32:59;17.90;99.90
55369;DHT22;41247;49.736;8.752;2023-05-24T11:36:39;18.10;99.90
55369;DHT22;41247;49.736;8.752;2023-05-24T11:40:20;18.10;99.90
55369;DHT22;41247;49.736;8.752;2023-05-24T11:44:01;18.30;99.90
55369;DHT22;41247;49.736;8.752;2023-05-24T11:47:42;18.70;99.90
55369;DHT22;41247;49.736;8.752;2023-05-24T11:51:30;18.40;99.90
55369;DHT22;41247;49.736;8.752;2023-05-24T11:55:12;17.80;99.90
55369;DHT22;41247;49.736;8.752;2023-05-24T11:59:02;18.00;99.90
55369;DHT22;41247;49.736;8.752;2023-05-24T12:02:58;17.70;99.90
55369;DHT22;41247;49.736;8.752;2023-05-24T12:06:51;17.20;99.90
55369;DHT22;41247;49.736;8.752;2023-05-24T12:15:30;18.00;99.90
55369;DHT22;41247;49.736;8.752;2023-05-24T12:19:29;18.70;99.90
55369;DHT22;41247;49.736;8.752;2023-05-24T12:23:10;19.00;99.90
55369;DHT22;41247;49.736;8.752;2023-05-24T12:26:58;18.80;99.90
55369;DHT22;41247;49.736;8.752;2023-05-24T12:30:44;18.90;99.90
55369;DHT22;41247;49.736;8.752;2023-05-24T12:34:25;19.30;99.90
55369;DHT22;41247;49.736;8.752;2023-05-24T12:38:13;18.90;99.90
55369;DHT22;41247;49.736;8.752;2023-05-24T12:41:54;18.50;99.90
55369;DHT22;41247;49.736;8.752;2023-05-24T12:45:36;18.80;99.90
55369;DHT22;41247;49.736;8.752;2023-05-24T12:49:18;18.60;99.90
55369;DHT22;41247;49.736;8.752;2023-05-24T12:53:31;18.80;99.90
55369;DHT22;41247;49.736;8.752;2023-05-24T12:57:35;19.30;99.90
55369;DHT22;41247;49.736;8.752;2023-05-24T13:01:16;19.60;99.90
55369;DHT22;41247;49.736;8.752;2023-05-24T13:04:57;19.20;99.90
55369;DHT22;41247;49.736;8.752;2023-05-24T13:08:38;19.50;99.90
55369;DHT22;41247;49.736;8.752;2023-05-24T13:12:20;19.90;99.90
55369;DHT22;41247;49.736;8.752;2023-05-24T13:16:01;20.10;99.90
55369;DHT22;41247;49.736;8.752;2023-05-24T13:19:42;20.30;99.90
55369;DHT22;41247;49.736;8.752;2023-05-24T13:23:23;20.40;99.90
55369;DHT22;41247;49.736;8.752;2023-05-24T13:27:04;20.50;99.90
55369;DHT22;41247;49.736;8.752;2023-05-24T13:30:46;20.60;99.90
55369;DHT22;41247;49.736;8.752;2023-05-24T13:34:27;20.80;99.90
55369;DHT22;41247;49.736;8.752;2023-05-24T13:38:07;21.00;99.90
55369;DHT22;41247;49.736;8.752;2023-05-24T13:41:48;20.70;99.90
55369;DHT22;41247;49.736;8.752;2023-05-24T13:45:29;20.80;99.90
55369;DHT22;41247;49.736;8.752;2023-05-24T13:49:12;20.30;99.90
55369;DHT22;41247;49.736;8.752;2023-05-24T13:52:53;20.50;99.90
55369;DHT22;41247;49.736;8.752;2023-05-24T13:56:34;20.80;99.90
55369;DHT22;41247;49.736;8.752;2023-05-24T14:00:15;20.70;99.90
55369;DHT22;41247;49.736;8.752;2023-05-24T14:03:56;20.60;99.90
55369;DHT22;41247;49.736;8.752;2023-05-24T14:07:37;20.30;99.90
55369;DHT22;41247;49.736;8.752;2023-05-24T14:11:19;19.70;99.90
55369;DHT22;41247;49.736;8.752;2023-05-24T14:14:59;20.10;99.90
55369;DHT22;41247;49.736;8.752;2023-05-24T14:18:40;20.70;99.90
55369;DHT22;41247;49.736;8.752;2023-05-24T14:22:21;21.50;99.90
55369;DHT22;41247;49.736;8.752;2023-05-24T14:26:02;21.90;99.90
55369;DHT22;41247;49.736;8.752;2023-05-24T14:29:42;22.10;99.90
55369;DHT22;41247;49.736;8.752;2023-05-24T14:33:23;22.10;99.90
55369;DHT22;41247;49.736;8.752;2023-05-24T14:37:04;22.10;99.90
55369;DHT22;41247;49.736;8.752;2023-05-24T14:40:44;22.00;99.90
55369;DHT22;41247;49.736;8.752;2023-05-24T14:44:25;22.20;99.90
55369;DHT22;41247;49.736;8.752;2023-05-24T14:48:06;22.20;99.90
55369;DHT22;41247;49.736;8.752;2023-05-24T14:51:47;21.40;99.90
55369;DHT22;41247;49.736;8.752;2023-05-24T14:55:28;20.80;99.90
55369;DHT22;41247;49.736;8.752;2023-05-24T14:59:08;20.60;99.90
55369;DHT22;41247;49.736;8.752;2023-05-24T15:02:49;20.10;99.90
55369;DHT22;41247;49.736;8.752;2023-05-24T15:06:29;19.40;99.90
55369;DHT22;41247;49.736;8.752;2023-05-24T15:10:11;19.40;99.90
55369;DHT22;41247;49.736;8.752;2023-05-24T15:13:51;19.90;99.90
55369;DHT22;41247;49.736;8.752;2023-05-24T15:17:32;20.10;99.90
55369;DHT22;41247;49.736;8.752;2023-05-24T15:21:12;20.30;99.90
55369;DHT22;41247;49.736;8.752;2023-05-24T15:24:53;19.90;99.90
55369;DHT22;41247;49.736;8.752;2023-05-24T15:28:33;19.50;99.90
55369;DHT22;41247;49.736;8.752;2023-05-24T15:32:14;19.70;99.90
55369;DHT22;41247;49.736;8.752;2023-05-24T15:35:55;20.70;99.90
55369;DHT22;41247;49.736;8.752;2023-05-24T15:39:35;21.10;99.90
55369;DHT22;41247;49.736;8.752;2023-05-24T15:43:17;20.90;99.90
55369;DHT22;41247;49.736;8.752;2023-05-24T15:46:58;20.30;99.90
55369;DHT22;41247;49.736;8.752;2023-05-24T15:50:39;19.90;99.90
55369;DHT22;41247;49.736;8.752;2023-05-24T15:54:20;19.30;99.90
55369;DHT22;41247;49.736;8.752;2023-05-24T15:58:00;18.80;99.90
55369;DHT22;41247;49.736;8.752;2023-05-24T16:01:41;18.20;99.90
55369;DHT22;41247;49.736;8.752;2023-05-24T16:05:22;17.70;99.90
55369;DHT22;41247;49.736;8.752;2023-05-24T16:09:03;17.40;99.90
55369;DHT22;41247;49.736;8.752;2023-05-24T16:12:43;17.30;99.90
55369;DHT22;41247;49.736;8.752;2023-05-24T16:16:25;17.30;99.90
55369;DHT22;41247;49.736;8.752;2023-05-24T16:20:06;17.30;99.90
55369;DHT22;41247;49.736;8.752;2023-05-24T16:23:46;17.40;99.90
55369;DHT22;41247;49.736;8.752;2023-05-24T16:27:27;17.60;99.90
55369;DHT22;41247;49.736;8.752;2023-05-24T16:31:08;17.90;99.90
55369;DHT22;41247;49.736;8.752;2023-05-24T16:34:48;18.10;99.90
55369;DHT22;41247;49.736;8.752;2023-05-24T16:38:29;18.20;99.90
55369;DHT22;41247;49.736;8.752;2023-05-24T16:42:09;18.30;99.90
55369;DHT22;41247;49.736;8.752;2023-05-24T16:45:50;18.20;99.90
55369;DHT22;41247;49.736;8.752;2023-05-24T16:49:31;18.10;99.90
55369;DHT22;41247;49.736;8.752;2023-05-24T16:53:11;17.90;99.90
55369;DHT22;41247;49.736;8.752;2023-05-24T16:56:52;17.50;99.90
55369;DHT22;41247;49.736;8.752;2023-05-24T17:00:32;17.30;99.90
55369;DHT22;41247;49.736;8.752;2023-05-24T17:04:13;17.20;99.90
55369;DHT22;41247;49.736;8.752;2023-05-24T17:07:54;16.90;99.90
55369;DHT22;41247;49.736;8.752;2023-05-24T17:11:35;16.50;99.90
55369;DHT22;41247;49.736;8.752;2023-05-24T17:15:16;16.00;99.90
55369;DHT22;41247;49.736;8.752;2023-05-24T17:18:56;15.70;99.90
55369;DHT22;41247;49.736;8.752;2023-05-24T17:22:37;15.40;99.90
55369;DHT22;41247;49.736;8.752;2023-05-24T17:26:18;15.20;99.90
55369;DHT22;41247;49.736;8.752;2023-05-24T17:29:58;15.10;99.90
55369;DHT22;41247;49.736;8.752;2023-05-24T17:33:39;15.10;99.90
55369;DHT22;41247;49.736;8.752;2023-05-24T17:37:20;15.20;99.90
55369;DHT22;41247;49.736;8.752;2023-05-24T17:41:00;15.20;99.90
55369;DHT22;41247;49.736;8.752;2023-05-24T17:44:41;15.30;99.90
55369;DHT22;41247;49.736;8.752;2023-05-24T17:48:21;15.30;99.90
55369;DHT22;41247;49.736;8.752;2023-05-24T17:52:02;15.10;99.90
55369;DHT22;41247;49.736;8.752;2023-05-24T17:55:43;14.90;99.90
55369;DHT22;41247;49.736;8.752;2023-05-24T17:59:23;14.70;99.90
55369;DHT22;41247;49.736;8.752;2023-05-24T18:03:04;14.60;99.90
55369;DHT22;41247;49.736;8.752;2023-05-24T18:06:45;14.50;99.90
55369;DHT22;41247;49.736;8.752;2023-05-24T18:10:25;14.30;99.90
55369;DHT22;41247;49.736;8.752;2023-05-24T18:14:06;14.10;99.90
55369;DHT22;41247;49.736;8.752;2023-05-24T18:17:46;13.90;99.90
55369;DHT22;41247;49.736;8.752;2023-05-24T18:21:27;13.80;99.90
55369;DHT22;41247;49.736;8.752;2023-05-24T18:25:08;13.60;99.90
55369;DHT22;41247;49.736;8.752;2023-05-24T18:28:49;13.40;99.90
55369;DHT22;41247;49.736;8.752;2023-05-24T18:32:29;13.30;99.90
55369;DHT22;41247;49.736;8.752;2023-05-24T18:36:10;13.10;99.90
55369;DHT22;41247;49.736;8.752;2023-05-24T18:39:50;12.90;99.90
55369;DHT22;41247;49.736;8.752;2023-05-24T18:43:31;12.80;99.90
55369;DHT22;41247;49.736;8.752;2023-05-24T18:47:12;12.80;99.90
55369;DHT22;41247;49.736;8.752;2023-05-24T18:50:52;12.70;99.90
55369;DHT22;41247;49.736;8.752;2023-05-24T18:54:33;12.60;99.90
55369;DHT22;41247;49.736;8.752;2023-05-24T18:58:14;12.50;99.90
55369;DHT22;41247;49.736;8.752;2023-05-24T19:01:54;12.50;99.90
55369;DHT22;41247;49.736;8.752;2023-05-24T19:05:35;12.40;99.90
55369;DHT22;41247;49.736;8.752;2023-05-24T19:09:16;12.30;99.90
55369;DHT22;41247;49.736;8.752;2023-05-24T19:12:56;12.20;99.90
55369;DHT22;41247;49.736;8.752;2023-05-24T19:16:37;12.10;99.90
55369;DHT22;41247;49.736;8.752;2023-05-24T19:20:18;12.00;99.90
55369;DHT22;41247;49.736;8.752;2023-05-24T19:23:58;12.00;99.90
55369;DHT22;41247;49.736;8.752;2023-05-24T19:27:39;11.90;99.90
55369;DHT22;41247;49.736;8.752;2023-05-24T19:31:22;11.80;99.90
55369;DHT22;41247;49.736;8.752;2023-05-24T19:35:04;11.70;99.90
55369;DHT22;41247;49.736;8.752;2023-05-24T19:38:46;11.60;99.90
55369;DHT22;41247;49.736;8.752;2023-05-24T19:42:26;11.40;99.90
55369;DHT22;41247;49.736;8.752;2023-05-24T19:46:07;11.30;99.90
55369;DHT22;41247;49.736;8.752;2023-05-24T19:49:47;11.10;99.90
55369;DHT22;41247;49.736;8.752;2023-05-24T19:53:28;11.00;99.90
55369;DHT22;41247;49.736;8.752;2023-05-24T19:57:08;10.80;99.90
55369;DHT22;41247;49.736;8.752;2023-05-24T20:00:49;10.80;99.90
55369;DHT22;41247;49.736;8.752;2023-05-24T20:04:30;10.70;99.90
55369;DHT22;41247;49.736;8.752;2023-05-24T20:08:10;10.60;99.90
55369;DHT22;41247;49.736;8.752;2023-05-24T20:11:51;10.60;99.90
55369;DHT22;41247;49.736;8.752;2023-05-24T20:15:31;10.60;99.90
55369;DHT22;41247;49.736;8.752;2023-05-24T20:19:12;10.50;99.90
55369;DHT22;41247;49.736;8.752;2023-05-24T20:22:53;10.50;99.90
55369;DHT22;41247;49.736;8.752;2023-05-24T20:26:33;10.40;99.90
55369;DHT22;41247;49.736;8.752;2023-05-24T20:30:16;10.30;99.90
55369;DHT22;41247;49.736;8.752;2023-05-24T20:33:57;10.20;99.90
55369;DHT22;41247;49.736;8.752;2023-05-24T20:37:37;10.20;99.90
55369;DHT22;41247;49.736;8.752;2023-05-24T20:41:18;10.10;99.90
55369;DHT22;41247;49.736;8.752;2023-05-24T20:44:58;10.00;99.90
55369;DHT22;41247;49.736;8.752;2023-05-24T20:48:39;10.00;99.90
55369;DHT22;41247;49.736;8.752;2023-05-24T20:52:26;9.90;99.90
55369;DHT22;41247;49.736;8.752;2023-05-24T20:56:06;9.80;99.90
55369;DHT22;41247;49.736;8.752;2023-05-24T20:59:47;9.70;99.90
55369;DHT22;41247;49.736;8.752;2023-05-24T21:03:28;9.60;99.90
55369;DHT22;41247;49.736;8.752;2023-05-24T21:07:09;9.50;99.90
55369;DHT22;41247;49.736;8.752;2023-05-24T21:10:50;9.40;99.90
55369;DHT22;41247;49.736;8.752;2023-05-24T21:14:30;9.30;99.90
55369;DHT22;41247;49.736;8.752;2023-05-24T21:18:11;9.20;99.90
55369;DHT22;41247;49.736;8.752;2023-05-24T21:21:51;9.20;99.90
55369;DHT22;41247;49.736;8.752;2023-05-24T21:25:32;9.10;99.90
55369;DHT22;41247;49.736;8.752;2023-05-24T21:29:12;9.00;99.90
55369;DHT22;41247;49.736;8.752;2023-05-24T21:32:54;8.90;99.90
55369;DHT22;41247;49.736;8.752;2023-05-24T21:36:35;8.90;99.90
55369;DHT22;41247;49.736;8.752;2023-05-24T21:40:15;8.80;99.90
55369;DHT22;41247;49.736;8.752;2023-05-24T21:43:56;8.80;99.90
55369;DHT22;41247;49.736;8.752;2023-05-24T21:47:37;8.80;99.90
55369;DHT22;41247;49.736;8.752;2023-05-24T21:51:17;8.80;99.90
55369;DHT22;41247;49.736;8.752;2023-05-24T21:54:58;8.80;99.90
55369;DHT22;41247;49.736;8.752;2023-05-24T21:58:38;8.80;99.90
55369;DHT22;41247;49.736;8.752;2023-05-24T22:02:19;8.80;99.90
55369;DHT22;41247;49.736;8.752;2023-05-24T22:06:00;8.80;99.90
55369;DHT22;41247;49.736;8.752;2023-05-24T22:09:40;8.90;99.90
55369;DHT22;41247;49.736;8.752;2023-05-24T22:13:21;8.80;99.90
55369;DHT22;41247;49.736;8.752;2023-05-24T22:17:02;8.80;99.90
55369;DHT22;41247;49.736;8.752;2023-05-24T22:20:43;8.80;99.90
55369;DHT22;41247;49.736;8.752;2023-05-24T22:24:25;8.80;99.90
55369;DHT22;41247;49.736;8.752;2023-05-24T22:28:06;8.80;99.90
55369;DHT22;41247;49.736;8.752;2023-05-24T22:31:47;8.80;99.90
55369;DHT22;41247;49.736;8.752;2023-05-24T22:35:28;8.70;99.90
55369;DHT22;41247;49.736;8.752;2023-05-24T22:39:08;8.70;99.90
55369;DHT22;41247;49.736;8.752;2023-05-24T22:42:49;8.70;99.90
55369;DHT22;41247;49.736;8.752;2023-05-24T22:46:29;8.70;99.90
55369;DHT22;41247;49.736;8.752;2023-05-24T22:50:10;8.70;99.90
55369;DHT22;41247;49.736;8.752;2023-05-24T22:53:54;8.70;99.90
55369;DHT22;41247;49.736;8.752;2023-05-24T22:57:34;8.70;99.90
55369;DHT22;41247;49.736;8.752;2023-05-24T23:01:15;8.70;99.90
55369;DHT22;41247;49.736;8.752;2023-05-24T23:04:55;8.60;99.90
55369;DHT22;41247;49.736;8.752;2023-05-24T23:08:37;8.60;99.90
55369;DHT22;41247;49.736;8.752;2023-05-24T23:12:18;8.60;99.90
55369;DHT22;41247;49.736;8.752;2023-05-24T23:15:59;8.50;99.90
55369;DHT22;41247;49.736;8.752;2023-05-24T23:19:40;8.50;99.90
55369;DHT22;41247;49.736;8.752;2023-05-24T23:23:24;8.50;99.90
55369;DHT22;41247;49.736;8.752;2023-05-24T23:27:05;8.40;99.90
55369;DHT22;41247;49.736;8.752;2023-05-24T23:30:46;8.40;99.90
55369;DHT22;41247;49.736;8.752;2023-05-24T23:34:27;8.30;99.90
55369;DHT22;41247;49.736;8.752;2023-05-24T23:38:07;8.30;99.90
55369;DHT22;41247;49.736;8.752;2023-05-24T23:41:48;8.20;99.90
55369;DHT22;41247;49.736;8.752;2023-05-24T23:45:28;8.20;99.90
55369;DHT22;41247;49.736;8.752;2023-05-24T23:49:09;8.10;99.90